Time;durP1;ratioP1;P1;durP2;ratioP2;P2;SDS_P1;SDS_P2;PMS_P1;PMS_P2;Temp;Humidity;BMP_temperature;BMP_pressure;BME280_temperature;BME280_humidity;BME280_pressure;Samples;Min_cycle;Max_cycle;Signal;HPM_P1;HPM_P2
2023/10/30 00:03:29;;;;;;;;;29.75;27.50;;;;;;;;6489074;31;9579;-68
2023/10/30 00:09:33;;;;;;;;;31.50;29.25;;;;;;;;6489947;31;8850;-68
2023/10/30 00:15:45;;;;;;;;;28.50;28.00;;;;;;;;6489179;46;8951;-67
2023/10/30 00:21:57;;;;;;;;;32.00;28.00;;;;;;;;6489275;46;8913;-66
2023/10/30 00:28:05;;;;;;;;;35.75;30.25;;;;;;;;6488817;31;8939;-67
2023/10/30 00:34:13;;;;;;;;;32.00;27.25;;;;;;;;6489183;39;9033;-67
2023/10/30 00:40:17;;;;;;;;;24.67;21.00;;;;;;;;6488715;39;8888;-66
2023/10/30 00:46:23;;;;;;;;;31.00;29.00;;;;;;;;6488109;31;8933;-67
2023/10/30 00:52:35;;;;;;;;;30.50;28.50;;;;;;;;6488511;39;8976;-66
2023/10/30 00:58:40;;;;;;;;;24.50;21.25;;;;;;;;6488427;39;8904;-67
2023/10/30 01:04:45;;;;;;;;;32.50;28.25;;;;;;;;6488337;46;8956;-66
2023/10/30 01:10:52;;;;;;;;;27.50;26.00;;;;;;;;6488125;39;8897;-66
2023/10/30 01:16:57;;;;;;;;;33.67;31.00;;;;;;;;6488119;46;8953;-66
2023/10/30 01:23:02;;;;;;;;;31.33;28.33;;;;;;;;6488868;31;8901;-67
2023/10/30 01:29:08;;;;;;;;;29.00;25.67;;;;;;;;6489178;39;9518;-66
2023/10/30 01:35:12;;;;;;;;;28.67;27.33;;;;;;;;6488501;39;9639;-67
2023/10/30 01:41:30;;;;;;;;;31.50;31.25;;;;;;;;6489403;39;8868;-68
2023/10/30 01:47:37;;;;;;;;;32.75;29.00;;;;;;;;6488422;46;8886;-68
2023/10/30 05:06:25;;;;;;;;;54.00;42.25;;;;;;;;6470999;46;9008;-69
2023/10/30 05:12:35;;;;;;;;;45.00;40.50;;;;;;;;6492298;46;8973;-67
2023/10/30 05:18:46;;;;;;;;;49.00;42.25;;;;;;;;6492176;46;8943;-68
2023/10/30 05:24:53;;;;;;;;;49.00;38.25;;;;;;;;6493808;31;8854;-66
2023/10/30 05:30:59;;;;;;;;;51.25;40.75;;;;;;;;6492179;31;8907;-70
2023/10/30 05:37:14;;;;;;;;;46.25;39.50;;;;;;;;6491885;39;9007;-67
2023/10/30 05:43:19;;;;;;;;;44.00;39.00;;;;;;;;6491999;46;8935;-68
2023/10/30 05:49:22;;;;;;;;;57.00;46.25;;;;;;;;6493138;31;8880;-69
2023/10/30 05:55:30;;;;;;;;;45.25;39.25;;;;;;;;6493678;39;9619;-68
2023/10/30 06:01:38;;;;;;;;;53.00;46.00;;;;;;;;6495758;31;8920;-68
2023/10/30 06:07:47;;;;;;;;;52.00;43.00;;;;;;;;6492434;46;8918;-67
2023/10/30 06:13:51;;;;;;;;;43.25;38.75;;;;;;;;6491690;46;8868;-68
2023/10/30 06:20:00;;;;;;;;;42.25;36.75;;;;;;;;6492165;39;8847;-68
2023/10/30 06:26:11;;;;;;;;;43.50;39.50;;;;;;;;6499812;36;8857;-68
2023/10/30 06:32:22;;;;;;;;;40.75;37.25;;;;;;;;6491510;39;8994;-68
2023/10/30 06:38:45;;;;;;;;;43.25;38.25;;;;;;;;6491755;39;9646;-68
2023/10/30 06:44:57;;;;;;;;;34.33;33.33;;;;;;;;6491700;39;8910;-69
2023/10/30 06:51:03;;;;;;;;;36.50;34.00;;;;;;;;6493664;31;8996;-70
2023/10/30 06:57:07;;;;;;;;;27.00;27.00;;;;;;;;6491268;39;8893;-68
2023/10/30 07:03:19;;;;;;;;;39.25;35.25;;;;;;;;6489696;47;8936;-69
2023/10/30 07:09:25;;;;;;;;;43.00;36.50;;;;;;;;6489041;39;8952;-69
2023/10/30 07:15:29;;;;;;;;;35.00;33.33;;;;;;;;6487086;46;8948;-69
2023/10/30 07:21:34;;;;;;;;;41.67;35.33;;;;;;;;6489933;31;9466;-68
2023/10/30 07:27:39;;;;;;;;;36.00;32.67;;;;;;;;6489588;39;8924;-70
2023/10/30 07:33:54;;;;;;;;;39.67;36.33;;;;;;;;6489670;39;8930;-69
2023/10/30 07:40:02;;;;;;;;;38.33;33.33;;;;;;;;6489652;46;8968;-68
2023/10/30 07:46:19;;;;;;;;;48.33;38.67;;;;;;;;6487412;31;8879;-69
2023/10/30 07:52:47;;;;;;;;;49.33;38.33;;;;;;;;6486384;39;9027;-69
2023/10/30 07:59:20;;;;;;;;;53.00;43.67;;;;;;;;6485054;31;8983;-67
2023/10/30 08:05:32;;;;;;;;;51.33;43.00;;;;;;;;6487757;46;8948;-69
2023/10/30 08:11:46;;;;;;;;;44.00;37.67;;;;;;;;6483466;46;8941;-70
2023/10/30 08:17:55;;;;;;;;;46.00;39.00;;;;;;;;6485755;31;8948;-70
2023/10/30 08:24:11;;;;;;;;;45.33;38.33;;;;;;;;6485053;46;8997;-68
2023/10/30 08:30:24;;;;;;;;;33.67;31.33;;;;;;;;6485764;39;8930;-67
2023/10/30 08:36:40;;;;;;;;;32.00;26.00;;;;;;;;6486571;39;8961;-64
2023/10/30 08:42:47;;;;;;;;;33.00;30.67;;;;;;;;6482275;39;8946;-65
2023/10/30 08:49:05;;;;;;;;;23.33;20.00;;;;;;;;6485260;31;8955;-66
2023/10/30 08:55:14;;;;;;;;;26.33;24.67;;;;;;;;6485291;39;8941;-65
2023/10/30 09:01:21;;;;;;;;;30.50;29.50;;;;;;;;6304851;31;10000544;-63
2023/10/30 09:07:27;;;;;;;;;31.67;29.00;;;;;;;;6487194;46;8894;-65
2023/10/30 09:13:32;;;;;;;;;29.00;26.33;;;;;;;;6478606;39;8966;-65
2023/10/30 09:19:38;;;;;;;;;36.00;30.33;;;;;;;;6481235;39;8973;-63
2023/10/30 09:25:49;;;;;;;;;19.67;19.67;;;;;;;;6481774;31;8928;-64
2023/10/30 09:31:55;;;;;;;;;21.67;19.67;;;;;;;;6481843;39;8921;-65
2023/10/30 09:38:00;;;;;;;;;21.67;19.67;;;;;;;;6481761;39;8952;-64
2023/10/30 09:44:09;;;;;;;;;23.25;19.75;;;;;;;;6480320;39;9570;-67
2023/10/30 09:50:23;;;;;;;;;21.25;19.00;;;;;;;;6482088;46;9053;-69
2023/10/30 09:56:34;;;;;;;;;24.67;23.00;;;;;;;;6481454;31;9704;-72
2023/10/30 10:02:36;;;;;;;;;27.33;26.33;;;;;;;;6479624;46;8934;-69
2023/10/30 10:08:47;;;;;;;;;24.00;21.33;;;;;;;;6482493;39;9005;-70
2023/10/30 10:14:55;;;;;;;;;25.67;22.33;;;;;;;;6481225;39;8968;-71
2023/10/30 10:21:46;;;;;;;;;25.67;25.33;;;;;;;;6479735;39;8989;-68
2023/10/30 10:27:57;;;;;;;;;21.25;21.25;;;;;;;;6480839;47;8908;-69
2023/10/30 10:34:15;;;;;;;;;21.00;20.33;;;;;;;;6480497;31;8976;-69
2023/10/30 10:40:22;;;;;;;;;26.75;19.50;;;;;;;;6481107;39;8928;-70
2023/10/30 10:46:28;;;;;;;;;23.67;22.00;;;;;;;;6482754;31;8933;-67
2023/10/30 10:52:36;;;;;;;;;19.25;19.25;;;;;;;;6481885;39;8972;-66
2023/10/30 10:59:04;;;;;;;;;20.25;18.50;;;;;;;;6482500;31;9029;-65
2023/10/30 11:05:09;;;;;;;;;15.25;14.75;;;;;;;;6483846;39;8917;-65
2023/10/30 11:11:32;;;;;;;;;22.00;18.75;;;;;;;;6483583;31;8913;-65
2023/10/30 11:17:40;;;;;;;;;18.25;16.75;;;;;;;;6483794;31;8941;-66
2023/10/30 11:23:44;;;;;;;;;28.50;25.25;;;;;;;;6485656;31;8925;-64
2023/10/30 11:30:11;;;;;;;;;20.00;20.00;;;;;;;;6486138;39;9017;-64
2023/10/30 11:36:19;;;;;;;;;19.25;16.75;;;;;;;;6486352;31;8937;-65
2023/10/30 11:42:21;;;;;;;;;18.25;16.50;;;;;;;;6484840;31;9036;-64
2023/10/30 11:48:27;;;;;;;;;17.00;16.00;;;;;;;;6484311;39;9103;-67
2023/10/30 11:54:33;;;;;;;;;18.00;17.00;;;;;;;;6484561;39;9070;-66
2023/10/30 12:01:05;;;;;;;;;22.25;18.75;;;;;;;;6483725;39;8962;-64
2023/10/30 12:07:15;;;;;;;;;13.25;10.50;;;;;;;;6485094;39;8928;-66
2023/10/30 12:13:22;;;;;;;;;17.25;15.00;;;;;;;;6484663;39;8952;-64
2023/10/30 12:19:31;;;;;;;;;29.50;27.25;;;;;;;;6483402;39;8943;-62
2023/10/30 12:25:39;;;;;;;;;35.50;31.25;;;;;;;;6485008;39;8973;-64
2023/10/30 12:32:04;;;;;;;;;14.50;12.00;;;;;;;;6484031;39;9606;-66
2023/10/30 12:38:16;;;;;;;;;13.25;12.50;;;;;;;;6484463;46;8925;-65
2023/10/30 12:44:23;;;;;;;;;17.00;14.50;;;;;;;;6484191;39;9653;-64
2023/10/30 12:50:41;;;;;;;;;13.00;12.00;;;;;;;;6486027;31;9015;-63
2023/10/30 12:56:51;;;;;;;;;19.00;18.50;;;;;;;;6485302;39;8952;-64
2023/10/30 13:03:12;;;;;;;;;22.75;18.50;;;;;;;;6484529;46;8953;-64
2023/10/30 13:09:17;;;;;;;;;20.00;17.25;;;;;;;;6484905;31;8912;-63
2023/10/30 13:15:22;;;;;;;;;9.75;8.25;;;;;;;;6486238;39;8921;-63
2023/10/30 13:21:25;;;;;;;;;22.25;20.50;;;;;;;;6484376;31;9043;-66
2023/10/30 13:27:32;;;;;;;;;17.00;12.50;;;;;;;;6483326;39;8930;-64
2023/10/30 13:33:37;;;;;;;;;10.25;10.25;;;;;;;;6484272;39;9066;-63
2023/10/30 13:39:44;;;;;;;;;8.00;8.00;;;;;;;;6485079;31;8861;-63
2023/10/30 13:45:49;;;;;;;;;6.00;6.00;;;;;;;;6481978;39;9555;-63
2023/10/30 13:51:55;;;;;;;;;6.25;5.50;;;;;;;;6482729;31;8936;-64
2023/10/30 13:57:58;;;;;;;;;7.75;7.75;;;;;;;;6481678;31;9087;-66
2023/10/30 14:04:02;;;;;;;;;10.25;8.00;;;;;;;;6483889;39;8976;-64
2023/10/30 14:10:11;;;;;;;;;9.50;7.50;;;;;;;;6483489;31;9022;-64
2023/10/30 14:16:18;;;;;;;;;8.75;6.25;;;;;;;;6481582;39;8980;-63
2023/10/30 14:22:24;;;;;;;;;9.50;8.00;;;;;;;;6481287;47;8974;-65
2023/10/30 14:28:32;;;;;;;;;8.50;6.00;;;;;;;;6482924;39;9003;-62
2023/10/30 14:34:38;;;;;;;;;14.75;12.75;;;;;;;;6484358;39;9049;-62
2023/10/30 14:40:44;;;;;;;;;13.50;13.00;;;;;;;;6483446;39;9028;-64
2023/10/30 14:46:48;;;;;;;;;16.50;14.25;;;;;;;;6481651;39;9012;-64
2023/10/30 14:52:51;;;;;;;;;15.25;14.00;;;;;;;;6481447;39;9004;-63
2023/10/30 14:58:59;;;;;;;;;21.33;20.33;;;;;;;;6483314;39;9093;-64
2023/10/30 15:05:05;;;;;;;;;21.33;18.33;;;;;;;;6483376;47;8992;-63
2023/10/30 15:11:12;;;;;;;;;11.75;11.75;;;;;;;;6484851;39;8920;-63
2023/10/30 15:17:15;;;;;;;;;11.33;11.33;;;;;;;;6484084;31;8957;-63
2023/10/30 15:23:19;;;;;;;;;11.50;11.50;;;;;;;;6485482;31;8966;-62
2023/10/30 15:29:23;;;;;;;;;12.67;8.67;;;;;;;;6484502;39;8921;-63
2023/10/30 15:35:30;;;;;;;;;16.33;15.67;;;;;;;;6485721;39;8875;-64
2023/10/30 15:41:32;;;;;;;;;22.00;19.00;;;;;;;;6485254;39;8948;-63
2023/10/30 15:47:47;;;;;;;;;25.00;22.67;;;;;;;;6486300;39;8946;-62
2023/10/30 15:53:52;;;;;;;;;24.67;18.33;;;;;;;;6485529;46;8917;-64
2023/10/30 15:59:58;;;;;;;;;26.33;25.67;;;;;;;;6485226;39;8867;-63
2023/10/30 16:06:03;;;;;;;;;32.33;29.33;;;;;;;;6485782;39;8917;-63
2023/10/30 16:12:15;;;;;;;;;29.00;27.33;;;;;;;;6485375;39;8947;-62
2023/10/30 16:18:20;;;;;;;;;41.33;34.33;;;;;;;;6486830;46;8909;-63
2023/10/30 16:24:32;;;;;;;;;41.67;36.00;;;;;;;;6487049;39;9032;-63
2023/10/30 16:30:41;;;;;;;;;45.33;36.00;;;;;;;;6486554;39;9402;-68
2023/10/30 16:36:45;;;;;;;;;38.67;33.33;;;;;;;;6489705;31;8928;-65
2023/10/30 16:42:48;;;;;;;;;32.00;32.00;;;;;;;;6489001;46;8878;-66
2023/10/30 16:48:53;;;;;;;;;34.33;31.67;;;;;;;;6489610;39;8921;-67
2023/10/30 16:54:57;;;;;;;;;35.33;33.00;;;;;;;;6488959;31;9079;-65
2023/10/30 17:01:03;;;;;;;;;32.00;30.00;;;;;;;;6488838;46;9002;-63
2023/10/30 17:07:10;;;;;;;;;47.67;41.33;;;;;;;;6489652;39;8870;-66
2023/10/30 17:13:18;;;;;;;;;42.67;36.67;;;;;;;;6486794;39;8887;-64
2023/10/30 17:19:22;;;;;;;;;50.67;41.00;;;;;;;;6488720;31;8897;-64
2023/10/30 17:25:26;;;;;;;;;61.00;48.67;;;;;;;;6488594;31;8912;-64
2023/10/30 17:31:42;;;;;;;;;58.25;47.25;;;;;;;;6489086;39;8881;-67
2023/10/30 17:37:45;;;;;;;;;59.00;45.75;;;;;;;;6488845;31;8900;-64
2023/10/30 17:43:47;;;;;;;;;55.25;44.25;;;;;;;;6487012;31;8909;-64
2023/10/30 17:49:54;;;;;;;;;55.33;47.00;;;;;;;;6488497;39;9026;-64
2023/10/30 17:56:03;;;;;;;;;57.75;47.00;;;;;;;;6488335;39;9600;-63
2023/10/30 18:02:08;;;;;;;;;62.75;50.00;;;;;;;;6489897;39;8852;-65
2023/10/30 18:08:13;;;;;;;;;57.00;46.75;;;;;;;;6489839;39;8861;-63
2023/10/30 18:14:15;;;;;;;;;57.50;46.75;;;;;;;;6488387;46;8884;-65
2023/10/30 18:20:18;;;;;;;;;61.75;51.00;;;;;;;;6488184;47;8952;-64
2023/10/30 18:26:24;;;;;;;;;64.50;50.50;;;;;;;;6487923;47;8884;-66
2023/10/30 18:32:28;;;;;;;;;63.50;50.00;;;;;;;;6488206;47;8889;-65
2023/10/30 18:38:35;;;;;;;;;57.50;46.75;;;;;;;;6489080;31;8856;-64
2023/10/30 18:44:48;;;;;;;;;63.50;50.75;;;;;;;;6487254;31;8949;-64
2023/10/30 18:50:51;;;;;;;;;73.00;57.50;;;;;;;;6488461;47;9004;-65
2023/10/30 18:56:55;;;;;;;;;72.00;57.75;;;;;;;;6487580;39;9836;-65
2023/10/30 19:02:59;;;;;;;;;68.75;54.50;;;;;;;;6489701;31;8873;-64
2023/10/30 19:09:09;;;;;;;;;71.50;57.00;;;;;;;;6490534;39;8833;-65
2023/10/30 19:15:17;;;;;;;;;66.50;52.00;;;;;;;;6488917;46;8849;-65
2023/10/30 19:21:19;;;;;;;;;56.75;48.50;;;;;;;;6489322;46;8980;-69
2023/10/30 19:27:23;;;;;;;;;55.00;46.33;;;;;;;;6489591;46;8880;-64
2023/10/30 19:33:27;;;;;;;;;63.75;51.25;;;;;;;;6490751;39;8945;-66
2023/10/30 19:39:34;;;;;;;;;59.25;48.25;;;;;;;;6489216;39;9612;-66
2023/10/30 19:45:37;;;;;;;;;55.50;45.25;;;;;;;;6489656;39;9553;-66
2023/10/30 19:51:41;;;;;;;;;58.50;47.50;;;;;;;;6490126;31;9039;-65
2023/10/30 19:57:53;;;;;;;;;57.75;47.50;;;;;;;;6490450;31;8956;-65
2023/10/30 20:03:55;;;;;;;;;55.00;43.50;;;;;;;;6488971;39;8876;-63
2023/10/30 20:09:57;;;;;;;;;54.75;43.75;;;;;;;;6488590;46;8880;-64
2023/10/30 20:16:21;;;;;;;;;51.25;41.25;;;;;;;;6489826;39;8899;-64
2023/10/30 20:22:25;;;;;;;;;45.33;39.33;;;;;;;;6489217;31;8862;-64
2023/10/30 20:28:37;;;;;;;;;53.25;44.00;;;;;;;;6022289;31;10001821;-66
2023/10/30 20:34:42;;;;;;;;;45.75;40.75;;;;;;;;6489166;39;8869;-65
2023/10/30 20:40:47;;;;;;;;;54.00;43.67;;;;;;;;6488820;46;8908;-63
2023/10/30 20:46:51;;;;;;;;;46.33;38.00;;;;;;;;6489469;39;9493;-66
2023/10/30 20:52:59;;;;;;;;;55.00;44.00;;;;;;;;6488599;46;8944;-65
2023/10/30 20:59:02;;;;;;;;;53.00;41.00;;;;;;;;6489043;31;9019;-66
2023/10/30 21:05:05;;;;;;;;;50.75;41.25;;;;;;;;6489913;39;8887;-64
2023/10/30 21:11:11;;;;;;;;;49.50;41.00;;;;;;;;6489202;39;8916;-64
2023/10/30 21:17:15;;;;;;;;;43.00;37.00;;;;;;;;6488337;31;8927;-64
2023/10/30 21:23:19;;;;;;;;;44.50;39.25;;;;;;;;6488694;39;9557;-65
2023/10/30 21:29:22;;;;;;;;;46.50;40.25;;;;;;;;6487541;39;8900;-65
2023/10/30 21:35:24;;;;;;;;;55.00;44.00;;;;;;;;6489213;31;8886;-64
2023/10/30 21:41:32;;;;;;;;;54.00;45.25;;;;;;;;6488496;39;8916;-65
2023/10/30 21:47:34;;;;;;;;;58.50;47.75;;;;;;;;6489167;39;9110;-64
2023/10/30 21:53:37;;;;;;;;;53.00;44.25;;;;;;;;6489626;31;9015;-64
2023/10/30 21:59:39;;;;;;;;;56.00;46.50;;;;;;;;6487128;46;8909;-65
2023/10/30 22:05:50;;;;;;;;;60.75;49.25;;;;;;;;6488835;39;8935;-64
2023/10/30 22:11:56;;;;;;;;;59.00;49.00;;;;;;;;6488369;39;8873;-63
2023/10/30 22:18:02;;;;;;;;;54.75;46.50;;;;;;;;6488842;31;8951;-64
2023/10/30 22:24:08;;;;;;;;;52.00;42.00;;;;;;;;6487604;47;9037;-62
2023/10/30 22:30:11;;;;;;;;;53.50;41.75;;;;;;;;6488557;39;9631;-64
2023/10/30 22:36:20;;;;;;;;;48.75;40.50;;;;;;;;6488517;39;8885;-62
2023/10/30 22:42:27;;;;;;;;;45.25;38.25;;;;;;;;6489446;46;8956;-64
2023/10/30 22:48:30;;;;;;;;;42.75;38.75;;;;;;;;6490054;46;9000;-65
2023/10/30 22:54:36;;;;;;;;;50.75;42.00;;;;;;;;6490262;39;8946;-64
2023/10/30 23:00:46;;;;;;;;;40.25;36.75;;;;;;;;6489751;39;8933;-65
2023/10/30 23:06:51;;;;;;;;;52.75;41.50;;;;;;;;6489993;39;8837;-62
2023/10/30 23:12:56;;;;;;;;;44.75;38.50;;;;;;;;6489223;46;8996;-63
2023/10/30 23:19:02;;;;;;;;;51.00;42.25;;;;;;;;6489737;46;8965;-63
2023/10/30 23:25:07;;;;;;;;;46.67;40.67;;;;;;;;6489973;39;8920;-64
2023/10/30 23:31:11;;;;;;;;;52.50;44.00;;;;;;;;6489076;46;8946;-64
2023/10/30 23:37:17;;;;;;;;;54.00;44.00;;;;;;;;6489210;46;8897;-64
2023/10/30 23:43:26;;;;;;;;;53.25;44.75;;;;;;;;6491197;31;8825;-63
2023/10/30 23:49:30;;;;;;;;;56.25;44.00;;;;;;;;6489160;46;8906;-64
2023/10/30 23:55:34;;;;;;;;;54.75;42.25;;;;;;;;6488711;46;8892;-63
